NGTA/TRW METAR and TAF weather

Enter ICAO airport designator
Station Type Date Time Source
NGTA METAR 2020/01/17 22:00 UTC NOAA

NGTA 172200Z 03006KT 9999 FEW020 SCT100 BKN300 31/28 Q1007


Station Type Date Time Source
NGTA Decoded METAR 2020/01/17 22:00 UTC NOAA

Tarawa, Kiribati (NGTA) 01-21N 172-55E 4M
Jan 17, 2020 - 05:00 PM EST / 2020.01.17 2200 UTC
Wind: from the NNE (030 degrees) at 7 MPH (6 KT):0
Visibility: greater than 7 mile(s):0
Sky conditions: mostly cloudy
Temperature: 87 F (31 C)
Heat index: 105.3 F (40.7 C):1
Dew Point: 82 F (28 C)
Relative Humidity: 84%
Pressure (altimeter): 29.74 in. Hg (1007 hPa)
ob: NGTA 172200Z 03006KT 9999 FEW020 SCT100 BKN300 31/28 Q1007
cycle: 22

Station Type Date Time Source
NGTA TAF 2020/01/17 18:30 UTC NOAA

TAF NGTA 171727Z 1718/1818 05007KT 9999 FEW020 SCT050

Example: see airport list